createdAt,value
2023-08-14T00:00:56.144Z,65.80
2023-08-14T00:03:23.725Z,65.60
2023-08-14T00:05:50.879Z,65.30
2023-08-14T00:08:17.654Z,65.20
2023-08-14T00:10:44.571Z,65.20
2023-08-14T00:13:12.157Z,65.20
2023-08-14T00:15:39.708Z,65.10
2023-08-14T00:18:06.906Z,65.10
2023-08-14T00:20:34.119Z,65.60
2023-08-14T00:23:00.977Z,65.50
2023-08-14T00:25:27.868Z,65.90
2023-08-14T00:27:55.040Z,66.00
2023-08-14T00:30:21.976Z,66.40
2023-08-14T00:32:49.068Z,67.00
2023-08-14T00:35:16.474Z,67.00
2023-08-14T00:37:50.724Z,66.90
2023-08-14T00:40:17.930Z,67.00
2023-08-14T00:42:48.782Z,67.20
2023-08-14T00:45:15.978Z,67.00
2023-08-14T00:47:46.220Z,66.80
2023-08-14T00:50:13.642Z,67.10
2023-08-14T00:52:45.371Z,67.20
2023-08-14T00:55:16.824Z,67.10
2023-08-14T00:57:44.061Z,67.10
2023-08-14T01:00:12.537Z,67.00
2023-08-14T01:02:41.383Z,66.80
2023-08-14T01:05:08.211Z,66.70
2023-08-14T01:07:35.132Z,66.90
2023-08-14T01:10:03.997Z,67.60
2023-08-14T01:12:39.084Z,67.90
2023-08-14T01:15:12.539Z,68.00
2023-08-14T01:17:47.148Z,67.90
2023-08-14T01:20:17.501Z,67.70
2023-08-14T01:23:06.561Z,67.70
2023-08-14T01:25:38.609Z,67.40
2023-08-14T01:28:06.931Z,67.30
2023-08-14T01:30:34.086Z,67.40
2023-08-14T01:33:01.209Z,67.30
2023-08-14T01:35:39.439Z,67.10
2023-08-14T01:38:16.565Z,67.10
2023-08-14T01:40:53.776Z,67.10
2023-08-14T01:43:34.387Z,67.10
2023-08-14T01:46:06.317Z,67.20
2023-08-14T01:48:33.848Z,67.10
2023-08-14T01:51:01.848Z,67.20
2023-08-14T01:53:28.845Z,67.30
2023-08-14T01:55:55.732Z,67.20
2023-08-14T01:58:22.844Z,67.20
2023-08-14T02:00:49.727Z,67.10
2023-08-14T02:03:16.519Z,67.10
2023-08-14T02:05:44.327Z,67.00
2023-08-14T02:08:11.242Z,67.30
2023-08-14T02:10:37.925Z,67.90
2023-08-14T02:13:05.927Z,68.10
2023-08-14T02:15:32.660Z,68.20
2023-08-14T02:17:59.478Z,68.10
2023-08-14T02:20:26.485Z,68.20
2023-08-14T02:22:53.212Z,68.10
2023-08-14T02:25:20.056Z,67.80
2023-08-14T02:27:46.783Z,67.80
2023-08-14T02:30:13.829Z,67.80
2023-08-14T02:32:40.605Z,67.80
2023-08-14T02:35:07.770Z,67.70
2023-08-14T02:37:34.487Z,67.70
2023-08-14T02:40:01.493Z,67.50
2023-08-14T02:42:28.215Z,67.60
2023-08-14T02:44:55.123Z,67.40
2023-08-14T02:47:24.383Z,67.50
2023-08-14T02:49:51.344Z,67.40
2023-08-14T02:52:18.168Z,67.40
2023-08-14T02:54:45.209Z,67.30
2023-08-14T02:57:11.937Z,67.30
2023-08-14T02:59:38.785Z,67.40
2023-08-14T03:02:05.610Z,67.90
2023-08-14T03:04:32.570Z,67.40
2023-08-14T03:06:59.335Z,67.50
2023-08-14T03:09:26.279Z,67.50
2023-08-14T03:11:53.011Z,67.70
2023-08-14T03:14:19.855Z,67.80
2023-08-14T03:16:46.665Z,67.90
2023-08-14T03:19:13.917Z,68.00
2023-08-14T03:21:42.953Z,68.00
2023-08-14T03:24:09.832Z,68.00
2023-08-14T03:26:36.604Z,67.90
2023-08-14T03:29:04.397Z,67.80
2023-08-14T03:31:33.170Z,68.40
2023-08-14T03:34:01.417Z,67.90
2023-08-14T03:36:28.541Z,67.90
2023-08-14T03:38:57.724Z,68.00
2023-08-14T03:41:25.541Z,68.00
2023-08-14T03:43:56.080Z,68.00
2023-08-14T03:46:23.686Z,68.00
2023-08-14T03:48:50.449Z,68.00
2023-08-14T03:51:17.567Z,68.10
2023-08-14T03:53:45.011Z,68.10
2023-08-14T03:56:11.970Z,68.20
2023-08-14T03:58:38.896Z,68.40
2023-08-14T04:01:05.782Z,69.20
2023-08-14T04:03:32.532Z,69.30
2023-08-14T04:05:59.736Z,69.60
2023-08-14T04:08:26.468Z,69.00
2023-08-14T04:10:55.268Z,68.70
2023-08-14T04:13:22.346Z,68.90
2023-08-14T04:15:49.323Z,69.30
2023-08-14T04:18:16.057Z,69.40
2023-08-14T04:20:43.805Z,69.50
2023-08-14T04:23:10.679Z,69.40
2023-08-14T04:25:37.574Z,69.00
2023-08-14T04:28:07.295Z,68.60
2023-08-14T04:30:34.238Z,68.40
2023-08-14T04:33:01.224Z,68.40
2023-08-14T04:35:28.800Z,68.20
2023-08-14T04:37:56.319Z,68.30
2023-08-14T04:40:23.143Z,68.20
2023-08-14T04:42:50.411Z,67.90
2023-08-14T04:45:17.256Z,67.60
2023-08-14T04:47:44.218Z,67.40
2023-08-14T04:50:12.395Z,67.40
2023-08-14T04:52:39.324Z,67.30
2023-08-14T04:55:07.425Z,67.10
2023-08-14T04:57:37.489Z,66.80
2023-08-14T05:00:08.198Z,66.80
2023-08-14T05:02:36.061Z,66.80
2023-08-14T05:05:03.561Z,66.70
2023-08-14T05:07:30.426Z,66.40
2023-08-14T05:09:57.194Z,66.10
2023-08-14T05:12:24.109Z,66.00
2023-08-14T05:17:20.670Z,65.40
2023-08-14T05:19:47.455Z,65.20
2023-08-14T05:22:16.459Z,65.00
2023-08-14T05:24:43.457Z,65.00
2023-08-14T05:27:10.197Z,64.80
2023-08-14T05:29:37.085Z,64.70
2023-08-14T05:32:05.862Z,64.70
2023-08-14T05:34:32.592Z,64.60
2023-08-14T05:36:59.305Z,64.10
2023-08-14T05:39:28.008Z,63.60
2023-08-14T05:41:54.768Z,62.80
2023-08-14T05:44:21.644Z,62.10
2023-08-14T05:46:49.856Z,61.50
2023-08-14T05:49:17.337Z,61.30
2023-08-14T05:51:44.320Z,60.70
2023-08-14T05:54:11.220Z,60.00
2023-08-14T05:56:38.264Z,59.20
2023-08-14T05:59:05.361Z,59.10
2023-08-14T06:01:32.180Z,58.50
2023-08-14T06:03:59.288Z,58.00
2023-08-14T06:06:26.110Z,57.40
2023-08-14T06:08:53.012Z,57.50
2023-08-14T06:11:19.775Z,56.40
2023-08-14T06:13:46.638Z,56.00
2023-08-14T06:16:13.470Z,55.00
2023-08-14T06:18:40.384Z,54.00
2023-08-14T06:21:07.176Z,53.30
2023-08-14T06:23:34.076Z,53.10
2023-08-14T06:26:00.840Z,52.80
2023-08-14T06:28:27.656Z,52.90
2023-08-14T06:30:54.429Z,53.10
2023-08-14T06:33:21.349Z,53.30
2023-08-14T06:35:48.054Z,53.00
2023-08-14T06:38:15.096Z,53.00
2023-08-14T06:40:41.774Z,53.00
2023-08-14T06:43:08.604Z,52.90
2023-08-14T06:45:35.561Z,53.00
2023-08-14T06:48:02.355Z,53.20
2023-08-14T06:50:29.258Z,53.30
2023-08-14T06:52:56.010Z,52.00
2023-08-14T06:55:22.872Z,50.60
2023-08-14T06:57:49.727Z,49.30
2023-08-14T07:00:16.883Z,49.20
2023-08-14T07:02:51.688Z,49.00
2023-08-14T07:05:29.160Z,48.30
2023-08-14T07:07:56.336Z,48.40
2023-08-14T07:10:23.124Z,49.30
2023-08-14T07:12:49.816Z,49.70
2023-08-14T07:15:19.811Z,50.50
2023-08-14T07:17:46.546Z,51.50
2023-08-14T07:20:13.485Z,52.30
2023-08-14T07:22:40.397Z,52.60
2023-08-14T07:25:07.448Z,53.20
2023-08-14T07:27:34.208Z,53.60
2023-08-14T07:30:01.327Z,54.10
2023-08-14T07:32:28.168Z,54.30
2023-08-14T07:34:55.098Z,54.70
2023-08-14T07:37:21.770Z,54.80
2023-08-14T07:39:48.734Z,54.30
2023-08-14T07:42:15.530Z,53.50
2023-08-14T07:44:42.492Z,52.40
2023-08-14T07:47:09.169Z,50.80
2023-08-14T07:49:36.096Z,50.60
2023-08-14T07:52:02.813Z,50.90
2023-08-14T07:54:29.747Z,51.40
2023-08-14T07:56:56.494Z,51.10
2023-08-14T07:59:23.276Z,49.60
2023-08-14T08:01:50.320Z,48.80
2023-08-14T08:06:46.843Z,47.40
2023-08-14T08:09:14.829Z,47.20
2023-08-14T08:11:41.844Z,46.80
2023-08-14T08:14:08.588Z,45.90
2023-08-14T08:16:38.348Z,44.00
2023-08-14T08:19:08.338Z,41.40
2023-08-14T08:21:35.207Z,38.40
2023-08-14T08:24:02.193Z,35.40
2023-08-14T08:26:29.008Z,34.40
2023-08-14T08:28:55.770Z,32.70
2023-08-14T08:31:23.302Z,33.00
2023-08-14T08:33:50.645Z,32.30
2023-08-14T08:36:20.217Z,31.90
2023-08-14T08:38:48.036Z,31.00
2023-08-14T08:41:21.268Z,30.00
2023-08-14T08:43:51.372Z,29.20
2023-08-14T08:46:23.166Z,28.80
2023-08-14T08:48:51.858Z,28.10
2023-08-14T08:51:18.718Z,27.80
2023-08-14T08:53:46.359Z,27.30
2023-08-14T08:56:13.746Z,26.80
2023-08-14T08:58:41.519Z,26.30
2023-08-14T09:01:08.278Z,26.00
2023-08-14T09:03:35.147Z,25.60
2023-08-14T09:06:02.284Z,25.50
2023-08-14T09:08:28.974Z,26.00
2023-08-14T09:10:55.864Z,25.70
2023-08-14T09:13:31.446Z,24.70
2023-08-14T09:16:01.598Z,25.70
2023-08-14T09:18:28.259Z,25.90
2023-08-14T09:20:55.665Z,25.80
2023-08-14T09:23:23.475Z,24.90
2023-08-14T09:25:52.048Z,24.50
2023-08-14T09:28:19.113Z,23.90
2023-08-14T09:30:45.886Z,24.10
2023-08-14T09:33:13.612Z,24.10
2023-08-14T09:35:41.582Z,23.80
2023-08-14T09:38:08.922Z,23.30
2023-08-14T09:40:36.653Z,22.70
2023-08-14T09:43:03.600Z,23.70
2023-08-14T09:45:35.684Z,23.00
2023-08-14T09:48:02.848Z,23.10
2023-08-14T09:50:31.777Z,22.90
2023-08-14T09:53:03.320Z,22.60
2023-08-14T09:55:30.270Z,22.20
2023-08-14T09:57:57.788Z,23.10
2023-08-14T10:00:30.175Z,22.90
2023-08-14T10:02:59.771Z,22.50
2023-08-14T10:05:28.741Z,22.80
2023-08-14T10:07:58.457Z,22.60
2023-08-14T10:10:30.202Z,22.10
2023-08-14T10:13:05.424Z,21.80
2023-08-14T10:15:43.243Z,21.60
2023-08-14T10:18:14.548Z,21.30
2023-08-14T10:20:44.791Z,21.10
2023-08-14T10:23:15.596Z,20.80
2023-08-14T10:25:43.771Z,20.70
2023-08-14T10:28:11.079Z,20.80
2023-08-14T10:30:39.424Z,21.30
2023-08-14T10:33:07.051Z,21.60
2023-08-14T10:35:51.153Z,22.30
2023-08-14T10:38:25.455Z,23.00
2023-08-14T10:41:05.252Z,23.70
2023-08-14T10:43:34.514Z,23.80
2023-08-14T10:46:11.895Z,23.20
2023-08-14T10:48:39.551Z,22.40
2023-08-14T10:51:10.137Z,22.10
2023-08-14T10:53:45.612Z,22.40
2023-08-14T10:56:13.198Z,21.70
2023-08-14T10:58:42.358Z,21.40
2023-08-14T11:01:10.758Z,21.30
2023-08-14T11:03:57.262Z,21.40
2023-08-14T11:06:29.138Z,21.70
2023-08-14T11:09:02.945Z,22.20
2023-08-14T11:11:29.696Z,23.30
2023-08-14T11:13:57.668Z,25.00
2023-08-14T11:16:24.526Z,26.40
2023-08-14T11:18:52.982Z,27.70
2023-08-14T11:21:30.646Z,28.70
2023-08-14T11:23:59.267Z,29.10
2023-08-14T11:26:30.504Z,30.20
2023-08-14T11:28:57.206Z,30.90
2023-08-14T11:31:31.018Z,30.70
2023-08-14T11:34:01.590Z,31.40
2023-08-14T11:36:34.547Z,31.60
2023-08-14T11:39:01.933Z,32.50
2023-08-14T11:41:32.277Z,32.60
2023-08-14T11:43:59.352Z,32.80
2023-08-14T11:46:26.510Z,32.90
2023-08-14T11:48:53.701Z,33.30
2023-08-14T11:51:21.185Z,33.30
2023-08-14T11:53:48.502Z,33.30
2023-08-14T11:56:15.425Z,33.30
2023-08-14T11:58:43.218Z,33.40
2023-08-14T12:01:13.475Z,34.20
2023-08-14T12:03:41.536Z,34.70
2023-08-14T12:06:08.635Z,34.80
2023-08-14T12:08:38.698Z,34.80
2023-08-14T12:11:06.294Z,35.40
2023-08-14T12:13:36.448Z,35.40
2023-08-14T12:16:12.018Z,35.20
2023-08-14T12:18:47.205Z,35.20
2023-08-14T12:21:14.245Z,35.40
2023-08-14T12:23:49.656Z,35.50
2023-08-14T12:26:16.646Z,35.70
2023-08-14T12:28:44.322Z,35.60
2023-08-14T12:31:12.096Z,36.20
2023-08-14T12:33:41.715Z,36.60
2023-08-14T12:36:11.272Z,36.30
2023-08-14T12:38:38.889Z,36.30
2023-08-14T12:41:06.416Z,36.60
2023-08-14T12:43:40.239Z,37.10
2023-08-14T12:46:10.542Z,37.90
2023-08-14T12:48:37.726Z,38.90
2023-08-14T12:51:05.040Z,38.40
2023-08-14T12:53:33.727Z,38.10
2023-08-14T12:56:04.352Z,38.20
2023-08-14T12:58:31.928Z,37.40
2023-08-14T13:01:04.848Z,37.50
2023-08-14T13:03:37.191Z,37.70
2023-08-14T13:06:07.843Z,37.80
2023-08-14T13:08:34.615Z,37.80
2023-08-14T13:11:01.537Z,38.20
2023-08-14T13:13:28.594Z,38.00
2023-08-14T13:15:56.623Z,38.20
2023-08-14T13:18:23.843Z,38.50
2023-08-14T13:20:51.209Z,38.30
2023-08-14T13:23:17.992Z,38.60
2023-08-14T13:25:44.844Z,39.30
2023-08-14T13:28:11.881Z,39.10
2023-08-14T13:30:40.749Z,39.10
2023-08-14T13:33:08.467Z,39.10
2023-08-14T13:35:35.384Z,39.20
2023-08-14T13:38:02.409Z,39.20
2023-08-14T13:40:29.927Z,39.20
2023-08-14T13:42:56.751Z,39.80
2023-08-14T13:45:24.633Z,39.70
2023-08-14T13:47:55.660Z,39.90
2023-08-14T13:50:34.050Z,40.30
2023-08-14T13:53:03.070Z,40.50
2023-08-14T13:55:31.978Z,40.80
2023-08-14T13:57:59.657Z,41.00
2023-08-14T14:00:30.008Z,40.90
2023-08-14T14:02:58.867Z,41.30
2023-08-14T14:05:26.327Z,40.60
2023-08-14T14:07:55.805Z,40.30
2023-08-14T14:10:24.464Z,40.40
2023-08-14T14:15:21.494Z,40.50
2023-08-14T14:17:48.658Z,40.60
2023-08-14T14:20:16.725Z,40.60
2023-08-14T14:22:44.194Z,40.60
2023-08-14T14:25:12.250Z,40.50
2023-08-14T14:27:39.457Z,40.40
2023-08-14T14:30:07.314Z,40.40
2023-08-14T14:32:34.170Z,40.40
2023-08-14T14:35:00.868Z,40.60
2023-08-14T14:37:27.798Z,40.50
2023-08-14T14:39:54.549Z,40.30
2023-08-14T14:42:25.463Z,40.10
2023-08-14T14:44:54.392Z,40.50
2023-08-14T14:47:23.493Z,40.90
2023-08-14T14:49:50.931Z,40.60
2023-08-14T14:52:17.602Z,40.40
2023-08-14T14:54:44.436Z,40.20
2023-08-14T14:57:11.263Z,40.00
2023-08-14T14:59:38.067Z,39.60
2023-08-14T15:02:12.081Z,39.10
2023-08-14T15:04:42.640Z,38.80
2023-08-14T15:07:09.612Z,38.70
2023-08-14T15:09:36.594Z,39.20
2023-08-14T15:12:03.644Z,39.20
2023-08-14T15:14:30.513Z,39.50
2023-08-14T15:16:57.498Z,39.70
2023-08-14T15:19:24.474Z,39.70
2023-08-14T15:21:51.278Z,40.10
2023-08-14T15:24:17.987Z,40.40
2023-08-14T15:26:45.036Z,41.10
2023-08-14T15:29:11.768Z,42.20
2023-08-14T15:31:38.715Z,43.10
2023-08-14T15:34:05.816Z,43.50
2023-08-14T15:36:33.158Z,44.30
2023-08-14T15:39:00.561Z,44.30
2023-08-14T15:41:27.620Z,44.90
2023-08-14T15:43:54.511Z,45.00
2023-08-14T15:46:21.266Z,45.00
2023-08-14T15:48:48.319Z,45.00
2023-08-14T15:51:15.254Z,45.20
2023-08-14T15:53:42.494Z,45.40
2023-08-14T15:56:09.287Z,45.50
2023-08-14T15:58:36.285Z,45.40
2023-08-14T16:01:03.059Z,45.60
2023-08-14T16:03:29.827Z,45.70
2023-08-14T16:05:58.717Z,45.90
2023-08-14T16:08:25.568Z,45.90
2023-08-14T16:10:52.675Z,46.10
2023-08-14T16:13:19.409Z,46.40
2023-08-14T16:15:46.385Z,46.40
2023-08-14T16:18:13.201Z,46.50
2023-08-14T16:20:40.163Z,46.30
2023-08-14T16:23:07.001Z,46.20
2023-08-14T16:25:35.688Z,46.40
2023-08-14T16:28:03.348Z,46.50
2023-08-14T16:30:36.702Z,46.80
2023-08-14T16:33:05.130Z,46.60
2023-08-14T16:35:32.274Z,47.00
2023-08-14T16:37:59.496Z,47.90
2023-08-14T16:40:26.238Z,48.10
2023-08-14T16:42:53.274Z,48.50
2023-08-14T16:45:20.252Z,48.50
2023-08-14T16:47:47.025Z,48.70
2023-08-14T16:50:14.138Z,49.50
2023-08-14T16:52:41.359Z,50.50
2023-08-14T16:55:08.512Z,50.40
2023-08-14T16:57:35.396Z,50.30
2023-08-14T17:00:02.447Z,50.40
2023-08-14T17:02:29.536Z,50.90
2023-08-14T17:04:56.271Z,50.90
2023-08-14T17:07:23.119Z,50.50
2023-08-14T17:09:50.259Z,51.20
2023-08-14T17:12:17.552Z,51.20
2023-08-14T17:14:45.350Z,50.80
2023-08-14T17:17:13.030Z,50.70
2023-08-14T17:19:39.973Z,51.10
2023-08-14T17:22:07.111Z,51.50
2023-08-14T17:24:33.843Z,51.20
2023-08-14T17:27:03.166Z,51.40
2023-08-14T17:29:30.089Z,51.60
2023-08-14T17:31:56.808Z,51.60
2023-08-14T17:34:23.497Z,52.80
2023-08-14T17:36:50.433Z,53.20
2023-08-14T17:39:17.252Z,53.40
2023-08-14T17:41:44.236Z,54.20
2023-08-14T17:44:11.136Z,54.40
2023-08-14T17:46:38.014Z,54.60
2023-08-14T17:49:04.797Z,54.90
2023-08-14T17:51:31.942Z,55.20
2023-08-14T17:53:59.415Z,55.70
2023-08-14T17:56:26.603Z,56.10
2023-08-14T17:58:53.424Z,56.30
2023-08-14T18:01:20.113Z,56.60
2023-08-14T18:03:47.164Z,56.60
2023-08-14T18:06:13.978Z,56.90
2023-08-14T18:08:40.718Z,57.00
2023-08-14T18:11:07.525Z,56.90
2023-08-14T18:13:34.203Z,56.80
2023-08-14T18:16:01.315Z,56.80
2023-08-14T18:18:28.305Z,57.10
2023-08-14T18:20:55.289Z,57.20
2023-08-14T18:23:22.404Z,57.20
2023-08-14T18:25:55.929Z,57.20
2023-08-14T18:28:22.998Z,57.20
2023-08-14T18:30:50.502Z,57.40
2023-08-14T18:33:17.242Z,57.50
2023-08-14T18:35:44.581Z,57.80
2023-08-14T18:38:11.457Z,57.70
2023-08-14T18:40:38.682Z,58.20
2023-08-14T18:43:05.443Z,57.60
2023-08-14T18:45:32.660Z,57.90
2023-08-14T18:47:59.592Z,58.20
2023-08-14T18:50:27.066Z,58.40
2023-08-14T18:52:54.120Z,58.60
2023-08-14T18:55:20.942Z,58.70
2023-08-14T18:57:47.689Z,58.80
2023-08-14T19:00:14.785Z,58.90
2023-08-14T19:02:41.696Z,59.30
2023-08-14T19:05:10.342Z,59.40
2023-08-14T19:07:39.163Z,59.50
2023-08-14T19:10:06.870Z,59.60
2023-08-14T19:12:33.588Z,59.70
2023-08-14T19:15:00.516Z,59.60
2023-08-14T19:17:27.286Z,59.60
2023-08-14T19:19:54.348Z,59.80
2023-08-14T19:22:21.475Z,60.00
2023-08-14T19:24:48.287Z,60.00
2023-08-14T19:27:15.105Z,60.10
2023-08-14T19:29:42.826Z,60.30
2023-08-14T19:32:09.705Z,60.20
2023-08-14T19:34:36.392Z,60.40
2023-08-14T19:37:03.460Z,60.30
2023-08-14T19:39:31.021Z,60.10
2023-08-14T19:41:57.796Z,60.00
2023-08-14T19:44:24.497Z,60.10
2023-08-14T19:46:51.685Z,60.30
2023-08-14T19:49:18.677Z,60.60
2023-08-14T19:51:45.754Z,60.60
2023-08-14T19:54:12.507Z,60.70
2023-08-14T19:56:39.329Z,61.00
2023-08-14T19:59:09.143Z,61.10
2023-08-14T20:01:36.334Z,62.10
2023-08-14T20:04:03.565Z,61.60
2023-08-14T20:06:30.542Z,61.90
2023-08-14T20:08:57.256Z,62.20
2023-08-14T20:11:24.096Z,62.10
2023-08-14T20:13:50.778Z,61.90
2023-08-14T20:16:20.694Z,61.60
2023-08-14T20:18:49.679Z,61.50
2023-08-14T20:21:16.737Z,61.50
2023-08-14T20:23:43.421Z,61.40
2023-08-14T20:26:10.182Z,61.10
2023-08-14T20:28:37.458Z,61.10
2023-08-14T20:31:04.340Z,61.10
2023-08-14T20:33:31.464Z,61.40
2023-08-14T20:35:58.303Z,61.50
2023-08-14T20:38:25.006Z,61.50
2023-08-14T20:40:57.525Z,61.80
2023-08-14T20:43:31.279Z,62.10
2023-08-14T20:45:58.012Z,62.40
2023-08-14T20:48:24.908Z,62.50
2023-08-14T20:50:51.686Z,62.70
2023-08-14T20:53:18.427Z,62.70
2023-08-14T20:55:45.365Z,62.70
2023-08-14T20:58:12.288Z,62.70
2023-08-14T21:00:43.464Z,62.80
2023-08-14T21:03:16.016Z,62.90
2023-08-14T21:05:47.180Z,63.00
2023-08-14T21:08:14.901Z,63.00
2023-08-14T21:10:43.273Z,63.10
2023-08-14T21:13:10.355Z,63.10
2023-08-14T21:15:37.779Z,63.10
2023-08-14T21:18:05.986Z,63.10
2023-08-14T21:20:32.807Z,63.40
2023-08-14T21:23:01.489Z,63.50
2023-08-14T21:25:34.846Z,63.80
2023-08-14T21:28:11.554Z,63.90
2023-08-14T21:30:38.906Z,63.90
2023-08-14T21:33:06.340Z,64.10
2023-08-14T21:35:33.213Z,64.10
2023-08-14T21:37:59.950Z,64.10
2023-08-14T21:40:26.959Z,64.10
2023-08-14T21:42:53.696Z,64.10
2023-08-14T21:45:20.531Z,64.10
2023-08-14T21:47:47.257Z,64.10
2023-08-14T21:50:14.117Z,64.10
2023-08-14T21:52:40.810Z,64.10
2023-08-14T21:55:08.385Z,64.10
